sensor_id;sensor_type;location;lat;lon;timestamp;pressure;altitude;pressure_sealevel;temperature;humidity
29045;BME280;16133;49.486;12.176;2023-01-08T00:01:55;96931.47;;;-1.10;100.00
29045;BME280;16133;49.486;12.176;2023-01-08T00:04:21;96934.31;;;-1.13;100.00
29045;BME280;16133;49.486;12.176;2023-01-08T00:06:46;96934.44;;;-1.14;100.00
29045;BME280;16133;49.486;12.176;2023-01-08T00:09:12;96934.44;;;-1.14;100.00
29045;BME280;16133;49.486;12.176;2023-01-08T00:11:37;96937.03;;;-1.14;100.00
29045;BME280;16133;49.486;12.176;2023-01-08T00:14:03;96933.75;;;-1.16;100.00
29045;BME280;16133;49.486;12.176;2023-01-08T00:16:28;96923.31;;;-1.16;100.00
29045;BME280;16133;49.486;12.176;2023-01-08T00:18:53;96915.75;;;-1.19;100.00
29045;BME280;16133;49.486;12.176;2023-01-08T00:21:19;96914.19;;;-1.22;100.00
29045;BME280;16133;49.486;12.176;2023-01-08T00:23:45;96918.72;;;-1.24;100.00
29045;BME280;16133;49.486;12.176;2023-01-08T00:26:10;96914.56;;;-1.26;100.00
29045;BME280;16133;49.486;12.176;2023-01-08T00:28:36;96907.72;;;-1.27;100.00
29045;BME280;16133;49.486;12.176;2023-01-08T00:31:03;96909.59;;;-1.29;100.00
29045;BME280;16133;49.486;12.176;2023-01-08T00:33:29;96899.44;;;-1.32;100.00
29045;BME280;16133;49.486;12.176;2023-01-08T00:35:55;96893.53;;;-1.34;100.00
29045;BME280;16133;49.486;12.176;2023-01-08T00:38:28;96899.66;;;-1.35;100.00
29045;BME280;16133;49.486;12.176;2023-01-08T00:40:53;96898.00;;;-1.36;100.00
29045;BME280;16133;49.486;12.176;2023-01-08T00:43:19;96893.88;;;-1.39;100.00
29045;BME280;16133;49.486;12.176;2023-01-08T00:45:45;96899.91;;;-1.38;100.00
29045;BME280;16133;49.486;12.176;2023-01-08T00:48:10;96899.91;;;-1.38;100.00
29045;BME280;16133;49.486;12.176;2023-01-08T00:50:35;96896.34;;;-1.37;100.00
29045;BME280;16133;49.486;12.176;2023-01-08T00:53:01;96889.38;;;-1.37;100.00
29045;BME280;16133;49.486;12.176;2023-01-08T00:55:28;96882.66;;;-1.39;100.00
29045;BME280;16133;49.486;12.176;2023-01-08T00:57:53;96876.72;;;-1.41;100.00
29045;BME280;16133;49.486;12.176;2023-01-08T01:00:18;96873.41;;;-1.43;100.00
29045;BME280;16133;49.486;12.176;2023-01-08T01:02:44;96868.31;;;-1.45;100.00
29045;BME280;16133;49.486;12.176;2023-01-08T01:05:12;96862.28;;;-1.46;100.00
29045;BME280;16133;49.486;12.176;2023-01-08T01:07:40;96864.09;;;-1.46;100.00
29045;BME280;16133;49.486;12.176;2023-01-08T01:10:06;96866.69;;;-1.46;100.00
29045;BME280;16133;49.486;12.176;2023-01-08T01:12:31;96867.38;;;-1.44;100.00
29045;BME280;16133;49.486;12.176;2023-01-08T01:14:57;96861.34;;;-1.45;100.00
29045;BME280;16133;49.486;12.176;2023-01-08T01:17:22;96860.75;;;-1.48;100.00
29045;BME280;16133;49.486;12.176;2023-01-08T01:19:48;96877.44;;;-1.51;100.00
29045;BME280;16133;49.486;12.176;2023-01-08T01:22:13;96873.19;;;-1.52;100.00
29045;BME280;16133;49.486;12.176;2023-01-08T01:24:38;96875.09;;;-1.54;100.00
29045;BME280;16133;49.486;12.176;2023-01-08T01:27:04;96866.56;;;-1.56;100.00
29045;BME280;16133;49.486;12.176;2023-01-08T01:29:29;96867.75;;;-1.60;100.00
29045;BME280;16133;49.486;12.176;2023-01-08T01:31:55;96866.44;;;-1.65;100.00
29045;BME280;16133;49.486;12.176;2023-01-08T01:34:20;96874.38;;;-1.67;100.00
29045;BME280;16133;49.486;12.176;2023-01-08T01:36:45;96860.03;;;-1.83;100.00
29045;BME280;16133;49.486;12.176;2023-01-08T01:39:11;96884.66;;;-1.76;100.00
29045;BME280;16133;49.486;12.176;2023-01-08T01:41:44;96886.53;;;-1.78;100.00
29045;BME280;16133;49.486;12.176;2023-01-08T01:46:57;96880.72;;;-1.82;100.00
29045;BME280;16133;49.486;12.176;2023-01-08T01:49:23;96880.72;;;-1.82;100.00
29045;BME280;16133;49.486;12.176;2023-01-08T01:51:53;96883.09;;;-1.79;100.00
29045;BME280;16133;49.486;12.176;2023-01-08T01:54:20;96881.69;;;-1.72;100.00
29045;BME280;16133;49.486;12.176;2023-01-08T01:56:47;96864.66;;;-1.65;100.00
29045;BME280;16133;49.486;12.176;2023-01-08T01:59:12;96855.31;;;-1.56;100.00
29045;BME280;16133;49.486;12.176;2023-01-08T02:01:40;96849.66;;;-1.50;100.00
29045;BME280;16133;49.486;12.176;2023-01-08T02:04:09;96831.69;;;-1.42;100.00
29045;BME280;16133;49.486;12.176;2023-01-08T02:10:09;96820.28;;;-1.30;100.00
29045;BME280;16133;49.486;12.176;2023-01-08T02:12:38;96818.97;;;-1.24;100.00
29045;BME280;16133;49.486;12.176;2023-01-08T02:20:18;96803.91;;;-1.10;100.00
29045;BME280;16133;49.486;12.176;2023-01-08T02:25:50;96802.25;;;-1.11;100.00
29045;BME280;16133;49.486;12.176;2023-01-08T02:28:15;96810.47;;;-1.15;100.00
29045;BME280;16133;49.486;12.176;2023-01-08T02:30:41;96814.09;;;-1.18;100.00
29045;BME280;16133;49.486;12.176;2023-01-08T02:33:07;96815.19;;;-1.20;100.00
29045;BME280;16133;49.486;12.176;2023-01-08T02:35:37;96818.25;;;-1.26;100.00
29045;BME280;16133;49.486;12.176;2023-01-08T02:38:04;96825.63;;;-1.31;100.00
29045;BME280;16133;49.486;12.176;2023-01-08T02:40:36;96814.06;;;-1.38;100.00
29045;BME280;16133;49.486;12.176;2023-01-08T02:43:39;96818.78;;;-1.43;100.00
29045;BME280;16133;49.486;12.176;2023-01-08T02:46:11;96814.06;;;-1.50;100.00
29045;BME280;16133;49.486;12.176;2023-01-08T02:48:45;96810.84;;;-1.53;100.00
29045;BME280;16133;49.486;12.176;2023-01-08T02:51:26;96800.09;;;-1.60;100.00
29045;BME280;16133;49.486;12.176;2023-01-08T02:53:56;96802.22;;;-1.65;100.00
29045;BME280;16133;49.486;12.176;2023-01-08T02:56:31;96800.00;;;-1.69;100.00
29045;BME280;16133;49.486;12.176;2023-01-08T02:58:58;96805.56;;;-1.74;100.00
29045;BME280;16133;49.486;12.176;2023-01-08T03:01:26;96808.03;;;-1.72;100.00
29045;BME280;16133;49.486;12.176;2023-01-08T03:03:55;96808.03;;;-1.72;100.00
29045;BME280;16133;49.486;12.176;2023-01-08T03:06:23;96812.63;;;-1.76;100.00
29045;BME280;16133;49.486;12.176;2023-01-08T03:08:52;96802.63;;;-1.80;100.00
29045;BME280;16133;49.486;12.176;2023-01-08T03:11:20;96804.84;;;-1.87;100.00
29045;BME280;16133;49.486;12.176;2023-01-08T03:16:32;96808.16;;;-1.96;100.00
29045;BME280;16133;49.486;12.176;2023-01-08T03:19:17;96798.94;;;-2.00;100.00
29045;BME280;16133;49.486;12.176;2023-01-08T03:21:44;96796.69;;;-2.05;100.00
29045;BME280;16133;49.486;12.176;2023-01-08T03:24:17;96802.97;;;-2.07;100.00
29045;BME280;16133;49.486;12.176;2023-01-08T03:26:45;96801.41;;;-2.10;100.00
29045;BME280;16133;49.486;12.176;2023-01-08T03:29:14;96802.47;;;-2.12;100.00
29045;BME280;16133;49.486;12.176;2023-01-08T03:31:43;96802.81;;;-2.17;100.00
29045;BME280;16133;49.486;12.176;2023-01-08T03:34:12;96801.41;;;-2.21;100.00
29045;BME280;16133;49.486;12.176;2023-01-08T03:36:40;96804.84;;;-2.20;100.00
29045;BME280;16133;49.486;12.176;2023-01-08T03:39:16;96816.75;;;-2.18;100.00
29045;BME280;16133;49.486;12.176;2023-01-08T03:41:43;96810.50;;;-2.15;100.00
29045;BME280;16133;49.486;12.176;2023-01-08T03:44:09;96799.28;;;-2.16;100.00
29045;BME280;16133;49.486;12.176;2023-01-08T03:46:38;96800.13;;;-2.15;100.00
29045;BME280;16133;49.486;12.176;2023-01-08T03:49:06;96789.50;;;-2.12;100.00
29045;BME280;16133;49.486;12.176;2023-01-08T03:51:40;96789.72;;;-2.04;100.00
29045;BME280;16133;49.486;12.176;2023-01-08T03:54:05;96769.41;;;-1.77;100.00
29045;BME280;16133;49.486;12.176;2023-01-08T03:56:33;96760.50;;;-1.63;100.00
29045;BME280;16133;49.486;12.176;2023-01-08T03:58:58;96753.28;;;-1.60;100.00
29045;BME280;16133;49.486;12.176;2023-01-08T04:01:23;96746.69;;;-1.64;100.00
29045;BME280;16133;49.486;12.176;2023-01-08T04:03:48;96736.78;;;-1.70;100.00
29045;BME280;16133;49.486;12.176;2023-01-08T04:06:14;96732.50;;;-1.71;100.00
29045;BME280;16133;49.486;12.176;2023-01-08T04:08:39;96728.25;;;-1.72;100.00
29045;BME280;16133;49.486;12.176;2023-01-08T04:11:04;96717.16;;;-1.74;100.00
29045;BME280;16133;49.486;12.176;2023-01-08T04:13:30;96719.03;;;-1.76;100.00
29045;BME280;16133;49.486;12.176;2023-01-08T04:15:55;96717.00;;;-1.72;100.00
29045;BME280;16133;49.486;12.176;2023-01-08T04:18:22;96707.66;;;-1.64;100.00
29045;BME280;16133;49.486;12.176;2023-01-08T04:20:47;96712.97;;;-1.54;100.00
29045;BME280;16133;49.486;12.176;2023-01-08T04:23:13;96697.69;;;-1.48;100.00
29045;BME280;16133;49.486;12.176;2023-01-08T04:25:39;96697.19;;;-1.41;100.00
29045;BME280;16133;49.486;12.176;2023-01-08T04:28:04;96693.28;;;-1.36;100.00
29045;BME280;16133;49.486;12.176;2023-01-08T04:30:30;96688.03;;;-1.25;100.00
29045;BME280;16133;49.486;12.176;2023-01-08T04:32:55;96676.63;;;-1.13;100.00
29045;BME280;16133;49.486;12.176;2023-01-08T04:35:21;96656.56;;;-1.01;100.00
29045;BME280;16133;49.486;12.176;2023-01-08T04:37:46;96654.72;;;-0.89;100.00
29045;BME280;16133;49.486;12.176;2023-01-08T04:40:11;96652.16;;;-0.80;100.00
29045;BME280;16133;49.486;12.176;2023-01-08T04:42:37;96649.75;;;-0.72;100.00
29045;BME280;16133;49.486;12.176;2023-01-08T04:45:02;96633.63;;;-0.66;100.00
29045;BME280;16133;49.486;12.176;2023-01-08T04:47:28;96626.22;;;-0.61;100.00
29045;BME280;16133;49.486;12.176;2023-01-08T04:49:53;96611.16;;;-0.57;100.00
29045;BME280;16133;49.486;12.176;2023-01-08T04:52:18;96622.00;;;-0.52;100.00
29045;BME280;16133;49.486;12.176;2023-01-08T04:54:44;96615.59;;;-0.48;100.00
29045;BME280;16133;49.486;12.176;2023-01-08T04:57:09;96594.34;;;-0.43;100.00
29045;BME280;16133;49.486;12.176;2023-01-08T04:59:34;96601.63;;;-0.37;100.00
29045;BME280;16133;49.486;12.176;2023-01-08T05:02:00;96600.13;;;-0.30;100.00
29045;BME280;16133;49.486;12.176;2023-01-08T05:04:25;96595.38;;;-0.25;100.00
29045;BME280;16133;49.486;12.176;2023-01-08T05:06:51;96580.16;;;-0.20;100.00
29045;BME280;16133;49.486;12.176;2023-01-08T05:09:16;96584.00;;;-0.15;100.00
29045;BME280;16133;49.486;12.176;2023-01-08T05:11:41;96573.16;;;-0.10;100.00
29045;BME280;16133;49.486;12.176;2023-01-08T05:14:07;96579.75;;;-0.06;100.00
29045;BME280;16133;49.486;12.176;2023-01-08T05:16:32;96568.09;;;-0.02;100.00
29045;BME280;16133;49.486;12.176;2023-01-08T05:18:58;96577.31;;;0.02;100.00
29045;BME280;16133;49.486;12.176;2023-01-08T05:21:23;96572.78;;;0.04;100.00
29045;BME280;16133;49.486;12.176;2023-01-08T05:23:49;96567.16;;;0.09;100.00
29045;BME280;16133;49.486;12.176;2023-01-08T05:26:15;96568.69;;;0.11;100.00
29045;BME280;16133;49.486;12.176;2023-01-08T05:28:40;96567.31;;;0.17;100.00
29045;BME280;16133;49.486;12.176;2023-01-08T05:31:06;96581.59;;;0.22;100.00
29045;BME280;16133;49.486;12.176;2023-01-08T05:33:32;96576.66;;;0.29;100.00
29045;BME280;16133;49.486;12.176;2023-01-08T05:35:57;96576.63;;;0.38;100.00
29045;BME280;16133;49.486;12.176;2023-01-08T05:38:22;96576.53;;;0.50;100.00
29045;BME280;16133;49.486;12.176;2023-01-08T05:40:51;96574.72;;;0.60;100.00
29045;BME280;16133;49.486;12.176;2023-01-08T05:43:16;96564.41;;;0.68;100.00
29045;BME280;16133;49.486;12.176;2023-01-08T05:45:41;96565.50;;;0.75;100.00
29045;BME280;16133;49.486;12.176;2023-01-08T05:48:07;96555.19;;;0.83;100.00
29045;BME280;16133;49.486;12.176;2023-01-08T05:50:33;96553.66;;;0.90;100.00
29045;BME280;16133;49.486;12.176;2023-01-08T05:52:59;96548.69;;;0.96;100.00
29045;BME280;16133;49.486;12.176;2023-01-08T05:55:27;96533.84;;;0.97;100.00
29045;BME280;16133;49.486;12.176;2023-01-08T05:57:52;96531.22;;;1.07;100.00
29045;BME280;16133;49.486;12.176;2023-01-08T06:00:18;96525.59;;;1.02;100.00
29045;BME280;16133;49.486;12.176;2023-01-08T06:02:46;96525.41;;;1.13;100.00
29045;BME280;16133;49.486;12.176;2023-01-08T06:05:12;96529.50;;;1.15;100.00
29045;BME280;16133;49.486;12.176;2023-01-08T06:07:38;96528.72;;;1.15;100.00
29045;BME280;16133;49.486;12.176;2023-01-08T06:10:03;96544.53;;;1.13;100.00
29045;BME280;16133;49.486;12.176;2023-01-08T06:12:29;96534.06;;;1.13;100.00
29045;BME280;16133;49.486;12.176;2023-01-08T06:14:54;96530.50;;;1.14;100.00
29045;BME280;16133;49.486;12.176;2023-01-08T06:17:19;96536.38;;;1.16;100.00
29045;BME280;16133;49.486;12.176;2023-01-08T06:19:45;96525.66;;;1.19;100.00
29045;BME280;16133;49.486;12.176;2023-01-08T06:22:11;96531.56;;;1.21;100.00
29045;BME280;16133;49.486;12.176;2023-01-08T06:24:36;96543.66;;;1.22;100.00
29045;BME280;16133;49.486;12.176;2023-01-08T06:27:02;96544.34;;;1.24;100.00
29045;BME280;16133;49.486;12.176;2023-01-08T06:29:27;96542.41;;;1.26;100.00
29045;BME280;16133;49.486;12.176;2023-01-08T06:31:52;96544.03;;;1.27;100.00
29045;BME280;16133;49.486;12.176;2023-01-08T06:34:18;96547.34;;;1.29;100.00
29045;BME280;16133;49.486;12.176;2023-01-08T06:36:43;96553.13;;;1.33;100.00
29045;BME280;16133;49.486;12.176;2023-01-08T06:39:08;96549.38;;;1.35;100.00
29045;BME280;16133;49.486;12.176;2023-01-08T06:41:34;96550.75;;;1.39;100.00
29045;BME280;16133;49.486;12.176;2023-01-08T06:43:59;96557.47;;;1.42;100.00
29045;BME280;16133;49.486;12.176;2023-01-08T06:46:25;96556.38;;;1.44;100.00
29045;BME280;16133;49.486;12.176;2023-01-08T06:48:50;96549.34;;;1.45;100.00
29045;BME280;16133;49.486;12.176;2023-01-08T06:51:16;96546.28;;;1.50;100.00
29045;BME280;16133;49.486;12.176;2023-01-08T06:53:41;96547.66;;;1.54;100.00
29045;BME280;16133;49.486;12.176;2023-01-08T06:56:07;96552.59;;;1.57;100.00
29045;BME280;16133;49.486;12.176;2023-01-08T06:58:36;96552.31;;;1.60;100.00
29045;BME280;16133;49.486;12.176;2023-01-08T07:01:02;96552.00;;;1.63;100.00
29045;BME280;16133;49.486;12.176;2023-01-08T07:03:27;96544.69;;;1.66;100.00
29045;BME280;16133;49.486;12.176;2023-01-08T07:05:53;96544.41;;;1.69;100.00
29045;BME280;16133;49.486;12.176;2023-01-08T07:08:18;96551.16;;;1.72;100.00
29045;BME280;16133;49.486;12.176;2023-01-08T07:10:44;96545.75;;;1.73;100.00
29045;BME280;16133;49.486;12.176;2023-01-08T07:13:10;96553.47;;;1.75;100.00
29045;BME280;16133;49.486;12.176;2023-01-08T07:15:39;96554.13;;;1.77;100.00
29045;BME280;16133;49.486;12.176;2023-01-08T07:18:06;96542.41;;;1.81;100.00
29045;BME280;16133;49.486;12.176;2023-01-08T07:20:33;96533.16;;;1.86;100.00
29045;BME280;16133;49.486;12.176;2023-01-08T07:23:03;96531.72;;;1.92;100.00
29045;BME280;16133;49.486;12.176;2023-01-08T07:25:28;96535.69;;;1.96;100.00
29045;BME280;16133;49.486;12.176;2023-01-08T07:27:55;96533.47;;;2.01;100.00
29045;BME280;16133;49.486;12.176;2023-01-08T07:30:20;96539.94;;;2.07;100.00
29045;BME280;16133;49.486;12.176;2023-01-08T07:32:45;96520.34;;;2.11;100.00
29045;BME280;16133;49.486;12.176;2023-01-08T07:35:11;96522.50;;;2.15;100.00
29045;BME280;16133;49.486;12.176;2023-01-08T07:37:40;96500.97;;;2.21;100.00
29045;BME280;16133;49.486;12.176;2023-01-08T07:40:07;96499.00;;;2.23;100.00
29045;BME280;16133;49.486;12.176;2023-01-08T07:42:33;96496.25;;;2.25;100.00
29045;BME280;16133;49.486;12.176;2023-01-08T07:44:58;96504.94;;;2.25;100.00
29045;BME280;16133;49.486;12.176;2023-01-08T07:47:23;96511.78;;;2.26;100.00
29045;BME280;16133;49.486;12.176;2023-01-08T07:49:48;96513.81;;;2.32;100.00
29045;BME280;16133;49.486;12.176;2023-01-08T07:52:14;96519.13;;;2.40;100.00
29045;BME280;16133;49.486;12.176;2023-01-08T07:54:39;96521.59;;;2.42;100.00
29045;BME280;16133;49.486;12.176;2023-01-08T07:57:05;96523.75;;;2.47;100.00
29045;BME280;16133;49.486;12.176;2023-01-08T07:59:30;96529.19;;;2.53;100.00
29045;BME280;16133;49.486;12.176;2023-01-08T08:01:55;96520.91;;;2.58;100.00
29045;BME280;16133;49.486;12.176;2023-01-08T08:04:21;96513.41;;;2.63;100.00
29045;BME280;16133;49.486;12.176;2023-01-08T08:06:46;96508.56;;;2.68;100.00
29045;BME280;16133;49.486;12.176;2023-01-08T08:09:11;96519.22;;;2.74;100.00
29045;BME280;16133;49.486;12.176;2023-01-08T08:11:37;96516.16;;;2.79;100.00
29045;BME280;16133;49.486;12.176;2023-01-08T08:14:02;96511.44;;;2.82;100.00
29045;BME280;16133;49.486;12.176;2023-01-08T08:16:29;96512.78;;;2.86;100.00
29045;BME280;16133;49.486;12.176;2023-01-08T08:18:57;96511.47;;;2.91;100.00
29045;BME280;16133;49.486;12.176;2023-01-08T08:21:22;96499.72;;;2.95;100.00
29045;BME280;16133;49.486;12.176;2023-01-08T08:23:47;96505.63;;;2.97;100.00
29045;BME280;16133;49.486;12.176;2023-01-08T08:26:13;96509.88;;;2.98;100.00
29045;BME280;16133;49.486;12.176;2023-01-08T08:28:38;96513.34;;;2.98;100.00
29045;BME280;16133;49.486;12.176;2023-01-08T08:31:04;96511.22;;;3.02;100.00
29045;BME280;16133;49.486;12.176;2023-01-08T08:33:29;96510.75;;;3.06;100.00
29045;BME280;16133;49.486;12.176;2023-01-08T08:35:54;96511.41;;;3.08;100.00
29045;BME280;16133;49.486;12.176;2023-01-08T08:38:20;96505.97;;;3.02;100.00
29045;BME280;16133;49.486;12.176;2023-01-08T08:40:45;96512.91;;;3.11;100.00
29045;BME280;16133;49.486;12.176;2023-01-08T08:43:10;96513.72;;;3.11;100.00
29045;BME280;16133;49.486;12.176;2023-01-08T08:45:36;96520.28;;;3.15;100.00
29045;BME280;16133;49.486;12.176;2023-01-08T08:48:04;96524.25;;;3.19;100.00
29045;BME280;16133;49.486;12.176;2023-01-08T08:50:30;96526.56;;;3.22;100.00
29045;BME280;16133;49.486;12.176;2023-01-08T08:52:59;96521.69;;;3.27;100.00
29045;BME280;16133;49.486;12.176;2023-01-08T08:55:25;96533.50;;;3.31;100.00
29045;BME280;16133;49.486;12.176;2023-01-08T08:57:50;96525.31;;;3.34;100.00
29045;BME280;16133;49.486;12.176;2023-01-08T09:00:17;96535.66;;;3.36;100.00
29045;BME280;16133;49.486;12.176;2023-01-08T09:02:42;96550.25;;;3.38;100.00
29045;BME280;16133;49.486;12.176;2023-01-08T09:05:08;96546.19;;;3.44;100.00
29045;BME280;16133;49.486;12.176;2023-01-08T09:07:34;96541.91;;;3.43;100.00
29045;BME280;16133;49.486;12.176;2023-01-08T09:09:59;96537.81;;;3.41;100.00
29045;BME280;16133;49.486;12.176;2023-01-08T09:12:24;96537.63;;;3.42;100.00
29045;BME280;16133;49.486;12.176;2023-01-08T09:14:50;96545.41;;;3.52;100.00
29045;BME280;16133;49.486;12.176;2023-01-08T09:17:16;96549.38;;;3.56;100.00
29045;BME280;16133;49.486;12.176;2023-01-08T09:19:41;96549.03;;;3.59;100.00
29045;BME280;16133;49.486;12.176;2023-01-08T09:22:06;96554.66;;;3.64;100.00
29045;BME280;16133;49.486;12.176;2023-01-08T09:24:32;96541.34;;;3.65;100.00
29045;BME280;16133;49.486;12.176;2023-01-08T09:26:58;96547.94;;;3.69;100.00
29045;BME280;16133;49.486;12.176;2023-01-08T09:29:23;96548.44;;;3.73;100.00
29045;BME280;16133;49.486;12.176;2023-01-08T09:31:49;96546.31;;;3.76;100.00
29045;BME280;16133;49.486;12.176;2023-01-08T09:34:14;96551.41;;;3.78;100.00
29045;BME280;16133;49.486;12.176;2023-01-08T09:36:40;96541.41;;;3.81;100.00
29045;BME280;16133;49.486;12.176;2023-01-08T09:39:05;96550.63;;;3.85;100.00
29045;BME280;16133;49.486;12.176;2023-01-08T09:41:33;96541.47;;;3.98;100.00
29045;BME280;16133;49.486;12.176;2023-01-08T09:44:02;96541.50;;;4.06;100.00
29045;BME280;16133;49.486;12.176;2023-01-08T09:46:29;96535.75;;;4.10;100.00
29045;BME280;16133;49.486;12.176;2023-01-08T09:49:02;96528.22;;;4.15;100.00
29045;BME280;16133;49.486;12.176;2023-01-08T09:51:38;96526.91;;;4.19;100.00
29045;BME280;16133;49.486;12.176;2023-01-08T09:54:04;96523.97;;;4.22;100.00
29045;BME280;16133;49.486;12.176;2023-01-08T09:56:32;96534.13;;;4.25;100.00
29045;BME280;16133;49.486;12.176;2023-01-08T09:58:59;96528.59;;;4.28;100.00
29045;BME280;16133;49.486;12.176;2023-01-08T10:01:33;96527.91;;;4.34;100.00
29045;BME280;16133;49.486;12.176;2023-01-08T10:04:13;96527.28;;;4.41;100.00
29045;BME280;16133;49.486;12.176;2023-01-08T10:06:41;96524.81;;;4.47;100.00
29045;BME280;16133;49.486;12.176;2023-01-08T10:09:13;96523.31;;;4.53;100.00
29045;BME280;16133;49.486;12.176;2023-01-08T10:11:44;96511.84;;;4.62;100.00
29045;BME280;16133;49.486;12.176;2023-01-08T10:14:33;96499.34;;;4.72;100.00
29045;BME280;16133;49.486;12.176;2023-01-08T10:17:02;96487.03;;;4.80;100.00
29045;BME280;16133;49.486;12.176;2023-01-08T10:19:29;96478.16;;;4.90;100.00
29045;BME280;16133;49.486;12.176;2023-01-08T10:21:55;96472.06;;;4.97;100.00
29045;BME280;16133;49.486;12.176;2023-01-08T10:24:33;96475.69;;;4.96;100.00
29045;BME280;16133;49.486;12.176;2023-01-08T10:27:16;96476.34;;;4.98;100.00
29045;BME280;16133;49.486;12.176;2023-01-08T10:29:41;96481.91;;;5.03;100.00
29045;BME280;16133;49.486;12.176;2023-01-08T10:32:15;96484.50;;;5.11;100.00
29045;BME280;16133;49.486;12.176;2023-01-08T10:34:49;96490.91;;;5.17;100.00
29045;BME280;16133;49.486;12.176;2023-01-08T10:37:27;96496.16;;;5.25;100.00
29045;BME280;16133;49.486;12.176;2023-01-08T10:39:57;96480.16;;;5.35;100.00
29045;BME280;16133;49.486;12.176;2023-01-08T10:42:24;96478.00;;;5.46;100.00
29045;BME280;16133;49.486;12.176;2023-01-08T10:45:03;96469.09;;;5.55;100.00
29045;BME280;16133;49.486;12.176;2023-01-08T10:47:33;96469.38;;;5.60;100.00
29045;BME280;16133;49.486;12.176;2023-01-08T10:49:59;96473.97;;;5.66;100.00
29045;BME280;16133;49.486;12.176;2023-01-08T10:52:33;96466.81;;;5.75;100.00
29045;BME280;16133;49.486;12.176;2023-01-08T10:55:17;96472.56;;;5.87;100.00
29045;BME280;16133;49.486;12.176;2023-01-08T11:02:52;96453.97;;;6.11;100.00
29045;BME280;16133;49.486;12.176;2023-01-08T11:05:17;96457.78;;;6.08;100.00
29045;BME280;16133;49.486;12.176;2023-01-08T11:07:47;96456.50;;;6.04;100.00
29045;BME280;16133;49.486;12.176;2023-01-08T11:10:23;96461.72;;;6.12;100.00
29045;BME280;16133;49.486;12.176;2023-01-08T11:12:57;96465.03;;;6.29;100.00
29045;BME280;16133;49.486;12.176;2023-01-08T11:15:31;96464.75;;;6.47;100.00
29045;BME280;16133;49.486;12.176;2023-01-08T11:18:12;96457.97;;;6.67;100.00
29045;BME280;16133;49.486;12.176;2023-01-08T11:20:40;96442.91;;;6.90;100.00
29045;BME280;16133;49.486;12.176;2023-01-08T11:25:55;96425.75;;;7.24;100.00
29045;BME280;16133;49.486;12.176;2023-01-08T11:28:32;96421.75;;;7.28;100.00
29045;BME280;16133;49.486;12.176;2023-01-08T11:31:12;96443.03;;;7.26;100.00
29045;BME280;16133;49.486;12.176;2023-01-08T11:33:38;96435.13;;;7.26;100.00
29045;BME280;16133;49.486;12.176;2023-01-08T11:36:10;96448.97;;;7.28;100.00
29045;BME280;16133;49.486;12.176;2023-01-08T11:38:38;96444.38;;;7.37;100.00
29045;BME280;16133;49.486;12.176;2023-01-08T11:44:10;96437.28;;;7.52;100.00
29045;BME280;16133;49.486;12.176;2023-01-08T11:50:03;96437.81;;;7.62;100.00
29045;BME280;16133;49.486;12.176;2023-01-08T11:57:48;96439.44;;;7.63;100.00
29045;BME280;16133;49.486;12.176;2023-01-08T12:03:10;96448.97;;;7.43;100.00
29045;BME280;16133;49.486;12.176;2023-01-08T12:05:51;96463.41;;;7.32;100.00
29045;BME280;16133;49.486;12.176;2023-01-08T12:11:29;96529.94;;;6.90;100.00
29045;BME280;16133;49.486;12.176;2023-01-08T12:35:48;96537.63;;;6.09;100.00
29045;BME280;16133;49.486;12.176;2023-01-08T12:38:31;96530.28;;;5.96;100.00
29045;BME280;16133;49.486;12.176;2023-01-08T12:41:00;96531.59;;;5.92;100.00
29045;BME280;16133;49.486;12.176;2023-01-08T12:46:10;96526.69;;;5.89;100.00
29045;BME280;16133;49.486;12.176;2023-01-08T12:48:37;96524.41;;;5.78;100.00
29045;BME280;16133;49.486;12.176;2023-01-08T12:56:30;96497.81;;;5.65;100.00
29045;BME280;16133;49.486;12.176;2023-01-08T12:59:13;96493.56;;;5.56;100.00
29045;BME280;16133;49.486;12.176;2023-01-08T13:04:41;96486.34;;;5.50;100.00
29045;BME280;16133;49.486;12.176;2023-01-08T13:07:15;96493.63;;;5.48;100.00
29045;BME280;16133;49.486;12.176;2023-01-08T13:09:42;96495.22;;;5.49;100.00
29045;BME280;16133;49.486;12.176;2023-01-08T13:12:12;96478.47;;;5.50;100.00
29045;BME280;16133;49.486;12.176;2023-01-08T13:14:50;96492.44;;;5.50;100.00
29045;BME280;16133;49.486;12.176;2023-01-08T13:17:19;96488.47;;;5.54;100.00
29045;BME280;16133;49.486;12.176;2023-01-08T13:19:51;96481.88;;;5.58;100.00
29045;BME280;16133;49.486;12.176;2023-01-08T13:22:29;96481.03;;;5.66;100.00
29045;BME280;16133;49.486;12.176;2023-01-08T13:25:09;96471.97;;;5.68;100.00
29045;BME280;16133;49.486;12.176;2023-01-08T13:27:35;96470.31;;;5.67;100.00
29045;BME280;16133;49.486;12.176;2023-01-08T13:30:00;96445.06;;;5.58;100.00
29045;BME280;16133;49.486;12.176;2023-01-08T13:32:44;96461.91;;;5.72;100.00
29045;BME280;16133;49.486;12.176;2023-01-08T13:35:28;96451.69;;;5.77;100.00
29045;BME280;16133;49.486;12.176;2023-01-08T13:38:12;96452.00;;;5.82;100.00
29045;BME280;16133;49.486;12.176;2023-01-08T13:48:27;96444.09;;;5.90;100.00
29045;BME280;16133;49.486;12.176;2023-01-08T13:50:54;96436.00;;;5.92;100.00
29045;BME280;16133;49.486;12.176;2023-01-08T13:53:20;96434.03;;;5.94;100.00
29045;BME280;16133;49.486;12.176;2023-01-08T13:56:19;96443.38;;;5.96;100.00
29045;BME280;16133;49.486;12.176;2023-01-08T13:58:51;96435.50;;;5.96;100.00
29045;BME280;16133;49.486;12.176;2023-01-08T14:01:17;96452.28;;;5.95;100.00
29045;BME280;16133;49.486;12.176;2023-01-08T14:03:47;96442.72;;;5.94;100.00
29045;BME280;16133;49.486;12.176;2023-01-08T14:06:20;96446.53;;;5.92;100.00
29045;BME280;16133;49.486;12.176;2023-01-08T14:11:15;96464.66;;;5.87;100.00
29045;BME280;16133;49.486;12.176;2023-01-08T14:13:41;96469.91;;;5.87;100.00
29045;BME280;16133;49.486;12.176;2023-01-08T14:16:11;96445.72;;;5.83;100.00